sensor_id;sensor_type;location;lat;lon;timestamp;P1;durP1;ratioP1;P2;durP2;ratioP2
35993;SDS011;22066;54.274;18.578;2022-11-20T00:00:42;36.90;;;12.60;;
35993;SDS011;22066;54.274;18.578;2022-11-20T00:03:08;30.60;;;12.87;;
35993;SDS011;22066;54.274;18.578;2022-11-20T00:05:34;28.10;;;11.17;;
35993;SDS011;22066;54.274;18.578;2022-11-20T00:08:00;27.27;;;11.47;;
35993;SDS011;22066;54.274;18.578;2022-11-20T00:10:26;28.27;;;11.90;;
35993;SDS011;22066;54.274;18.578;2022-11-20T00:12:52;31.17;;;12.63;;
35993;SDS011;22066;54.274;18.578;2022-11-20T00:15:18;32.03;;;12.97;;
35993;SDS011;22066;54.274;18.578;2022-11-20T00:17:44;30.30;;;11.87;;
35993;SDS011;22066;54.274;18.578;2022-11-20T00:20:10;28.47;;;11.33;;
35993;SDS011;22066;54.274;18.578;2022-11-20T00:22:36;29.43;;;12.27;;
35993;SDS011;22066;54.274;18.578;2022-11-20T00:25:03;30.40;;;12.53;;
35993;SDS011;22066;54.274;18.578;2022-11-20T00:27:29;31.03;;;10.87;;
35993;SDS011;22066;54.274;18.578;2022-11-20T00:29:55;26.70;;;10.90;;
35993;SDS011;22066;54.274;18.578;2022-11-20T00:32:21;29.47;;;12.03;;
35993;SDS011;22066;54.274;18.578;2022-11-20T00:34:47;27.17;;;10.83;;
35993;SDS011;22066;54.274;18.578;2022-11-20T00:37:13;27.57;;;10.90;;
35993;SDS011;22066;54.274;18.578;2022-11-20T00:39:39;30.03;;;10.67;;
35993;SDS011;22066;54.274;18.578;2022-11-20T00:42:05;31.20;;;11.90;;
35993;SDS011;22066;54.274;18.578;2022-11-20T00:44:31;28.13;;;12.37;;
35993;SDS011;22066;54.274;18.578;2022-11-20T00:46:57;27.73;;;11.63;;
35993;SDS011;22066;54.274;18.578;2022-11-20T00:49:23;26.10;;;11.50;;
35993;SDS011;22066;54.274;18.578;2022-11-20T00:51:49;27.50;;;10.63;;
35993;SDS011;22066;54.274;18.578;2022-11-20T00:54:15;31.47;;;12.17;;
35993;SDS011;22066;54.274;18.578;2022-11-20T00:56:41;25.77;;;10.97;;
35993;SDS011;22066;54.274;18.578;2022-11-20T00:59:08;25.57;;;11.50;;
35993;SDS011;22066;54.274;18.578;2022-11-20T01:01:34;25.17;;;11.05;;
35993;SDS011;22066;54.274;18.578;2022-11-20T01:04:01;35.30;;;13.70;;
35993;SDS011;22066;54.274;18.578;2022-11-20T01:06:34;32.53;;;13.57;;
35993;SDS011;22066;54.274;18.578;2022-11-20T01:09:02;25.93;;;10.43;;
35993;SDS011;22066;54.274;18.578;2022-11-20T01:11:29;31.35;;;11.00;;
35993;SDS011;22066;54.274;18.578;2022-11-20T01:13:56;20.17;;;8.27;;
35993;SDS011;22066;54.274;18.578;2022-11-20T01:16:24;31.50;;;11.97;;
35993;SDS011;22066;54.274;18.578;2022-11-20T01:18:51;28.90;;;11.45;;
35993;SDS011;22066;54.274;18.578;2022-11-20T01:21:28;31.67;;;12.20;;
35993;SDS011;22066;54.274;18.578;2022-11-20T01:23:54;25.17;;;9.93;;
35993;SDS011;22066;54.274;18.578;2022-11-20T01:26:21;28.23;;;10.77;;
35993;SDS011;22066;54.274;18.578;2022-11-20T01:28:48;35.92;;;12.65;;
35993;SDS011;22066;54.274;18.578;2022-11-20T01:31:15;30.03;;;11.23;;
35993;SDS011;22066;54.274;18.578;2022-11-20T01:33:42;19.55;;;8.20;;
35993;SDS011;22066;54.274;18.578;2022-11-20T01:36:09;27.60;;;10.70;;
35993;SDS011;22066;54.274;18.578;2022-11-20T01:38:35;28.63;;;11.97;;
35993;SDS011;22066;54.274;18.578;2022-11-20T01:41:01;26.23;;;12.00;;
35993;SDS011;22066;54.274;18.578;2022-11-20T01:43:27;28.17;;;11.80;;
35993;SDS011;22066;54.274;18.578;2022-11-20T01:48:22;34.20;;;13.23;;
35993;SDS011;22066;54.274;18.578;2022-11-20T01:50:49;27.97;;;11.80;;
35993;SDS011;22066;54.274;18.578;2022-11-20T01:53:17;27.40;;;11.67;;
35993;SDS011;22066;54.274;18.578;2022-11-20T01:55:49;39.50;;;12.45;;
35993;SDS011;22066;54.274;18.578;2022-11-20T01:58:16;27.57;;;10.70;;
35993;SDS011;22066;54.274;18.578;2022-11-20T02:00:44;26.35;;;11.88;;
35993;SDS011;22066;54.274;18.578;2022-11-20T02:03:11;29.07;;;11.23;;
35993;SDS011;22066;54.274;18.578;2022-11-20T02:05:44;31.80;;;12.97;;
35993;SDS011;22066;54.274;18.578;2022-11-20T02:08:11;30.33;;;11.50;;
35993;SDS011;22066;54.274;18.578;2022-11-20T02:10:37;28.73;;;10.57;;
35993;SDS011;22066;54.274;18.578;2022-11-20T02:13:04;27.50;;;11.53;;
35993;SDS011;22066;54.274;18.578;2022-11-20T02:15:48;29.57;;;11.33;;
35993;SDS011;22066;54.274;18.578;2022-11-20T02:18:16;20.50;;;9.13;;
35993;SDS011;22066;54.274;18.578;2022-11-20T02:20:43;25.73;;;10.70;;
35993;SDS011;22066;54.274;18.578;2022-11-20T02:25:35;16.60;;;8.57;;
35993;SDS011;22066;54.274;18.578;2022-11-20T02:28:02;23.37;;;9.93;;
35993;SDS011;22066;54.274;18.578;2022-11-20T02:30:29;24.73;;;9.57;;
35993;SDS011;22066;54.274;18.578;2022-11-20T02:32:55;25.00;;;9.47;;
35993;SDS011;22066;54.274;18.578;2022-11-20T02:37:47;25.70;;;10.10;;
35993;SDS011;22066;54.274;18.578;2022-11-20T02:40:14;22.63;;;8.40;;
35993;SDS011;22066;54.274;18.578;2022-11-20T02:42:40;25.63;;;9.47;;
35993;SDS011;22066;54.274;18.578;2022-11-20T02:45:06;23.17;;;10.53;;
35993;SDS011;22066;54.274;18.578;2022-11-20T02:47:33;29.03;;;12.33;;
35993;SDS011;22066;54.274;18.578;2022-11-20T02:49:59;28.63;;;9.83;;
35993;SDS011;22066;54.274;18.578;2022-11-20T02:52:25;28.17;;;11.97;;
35993;SDS011;22066;54.274;18.578;2022-11-20T02:54:51;22.30;;;10.67;;
35993;SDS011;22066;54.274;18.578;2022-11-20T02:57:18;23.10;;;9.50;;
35993;SDS011;22066;54.274;18.578;2022-11-20T02:59:44;26.43;;;11.17;;
35993;SDS011;22066;54.274;18.578;2022-11-20T03:02:10;25.40;;;11.57;;
35993;SDS011;22066;54.274;18.578;2022-11-20T03:04:36;24.03;;;10.80;;
35993;SDS011;22066;54.274;18.578;2022-11-20T03:07:02;23.10;;;11.10;;
35993;SDS011;22066;54.274;18.578;2022-11-20T03:09:28;28.33;;;9.60;;
35993;SDS011;22066;54.274;18.578;2022-11-20T03:11:54;25.03;;;10.17;;
35993;SDS011;22066;54.274;18.578;2022-11-20T03:14:20;24.63;;;9.40;;
35993;SDS011;22066;54.274;18.578;2022-11-20T03:16:46;25.27;;;9.33;;
35993;SDS011;22066;54.274;18.578;2022-11-20T03:19:12;24.00;;;10.53;;
35993;SDS011;22066;54.274;18.578;2022-11-20T03:21:38;28.77;;;10.97;;
35993;SDS011;22066;54.274;18.578;2022-11-20T03:24:05;29.07;;;11.90;;
35993;SDS011;22066;54.274;18.578;2022-11-20T03:26:31;27.57;;;10.30;;
35993;SDS011;22066;54.274;18.578;2022-11-20T03:28:58;27.43;;;11.60;;
35993;SDS011;22066;54.274;18.578;2022-11-20T03:31:25;29.60;;;11.63;;
35993;SDS011;22066;54.274;18.578;2022-11-20T03:33:51;30.43;;;10.80;;
35993;SDS011;22066;54.274;18.578;2022-11-20T03:36:18;34.23;;;12.87;;
35993;SDS011;22066;54.274;18.578;2022-11-20T03:38:44;34.27;;;10.93;;
35993;SDS011;22066;54.274;18.578;2022-11-20T03:41:11;26.10;;;11.40;;
35993;SDS011;22066;54.274;18.578;2022-11-20T03:43:38;29.87;;;11.67;;
35993;SDS011;22066;54.274;18.578;2022-11-20T03:46:04;28.17;;;11.70;;
35993;SDS011;22066;54.274;18.578;2022-11-20T03:48:30;25.80;;;8.77;;
35993;SDS011;22066;54.274;18.578;2022-11-20T03:51:07;27.93;;;11.23;;
35993;SDS011;22066;54.274;18.578;2022-11-20T03:53:33;30.00;;;11.03;;
35993;SDS011;22066;54.274;18.578;2022-11-20T03:55:59;30.10;;;11.13;;
35993;SDS011;22066;54.274;18.578;2022-11-20T03:58:25;27.27;;;11.40;;
35993;SDS011;22066;54.274;18.578;2022-11-20T04:00:51;26.70;;;11.00;;
35993;SDS011;22066;54.274;18.578;2022-11-20T04:03:17;29.30;;;11.57;;
35993;SDS011;22066;54.274;18.578;2022-11-20T04:05:43;31.37;;;10.60;;
35993;SDS011;22066;54.274;18.578;2022-11-20T04:08:09;25.97;;;10.43;;
35993;SDS011;22066;54.274;18.578;2022-11-20T04:10:35;33.67;;;9.50;;
35993;SDS011;22066;54.274;18.578;2022-11-20T04:13:01;27.67;;;9.70;;
35993;SDS011;22066;54.274;18.578;2022-11-20T04:15:27;17.77;;;8.00;;
35993;SDS011;22066;54.274;18.578;2022-11-20T04:17:53;25.13;;;9.47;;
35993;SDS011;22066;54.274;18.578;2022-11-20T04:20:20;33.53;;;9.93;;
35993;SDS011;22066;54.274;18.578;2022-11-20T04:22:46;25.90;;;9.50;;
35993;SDS011;22066;54.274;18.578;2022-11-20T04:25:12;22.97;;;8.40;;
35993;SDS011;22066;54.274;18.578;2022-11-20T04:27:38;22.93;;;9.27;;
35993;SDS011;22066;54.274;18.578;2022-11-20T04:30:04;21.50;;;9.23;;
35993;SDS011;22066;54.274;18.578;2022-11-20T04:32:30;20.77;;;8.13;;
35993;SDS011;22066;54.274;18.578;2022-11-20T04:34:56;25.43;;;9.30;;
35993;SDS011;22066;54.274;18.578;2022-11-20T04:37:22;19.27;;;8.53;;
35993;SDS011;22066;54.274;18.578;2022-11-20T04:39:48;19.50;;;8.33;;
35993;SDS011;22066;54.274;18.578;2022-11-20T04:42:14;23.40;;;10.03;;
35993;SDS011;22066;54.274;18.578;2022-11-20T04:44:56;25.20;;;9.07;;
35993;SDS011;22066;54.274;18.578;2022-11-20T04:47:22;23.93;;;9.13;;
35993;SDS011;22066;54.274;18.578;2022-11-20T04:49:48;26.50;;;9.30;;
35993;SDS011;22066;54.274;18.578;2022-11-20T04:52:14;25.03;;;10.77;;
35993;SDS011;22066;54.274;18.578;2022-11-20T04:54:40;27.20;;;10.43;;
35993;SDS011;22066;54.274;18.578;2022-11-20T04:57:06;25.70;;;9.10;;
35993;SDS011;22066;54.274;18.578;2022-11-20T04:59:32;24.73;;;10.03;;
35993;SDS011;22066;54.274;18.578;2022-11-20T05:01:58;26.83;;;11.47;;
35993;SDS011;22066;54.274;18.578;2022-11-20T05:04:24;25.43;;;9.10;;
35993;SDS011;22066;54.274;18.578;2022-11-20T05:06:50;28.83;;;8.93;;
35993;SDS011;22066;54.274;18.578;2022-11-20T05:09:16;22.97;;;9.37;;
35993;SDS011;22066;54.274;18.578;2022-11-20T05:11:42;22.23;;;8.13;;
35993;SDS011;22066;54.274;18.578;2022-11-20T05:14:08;24.10;;;9.07;;
35993;SDS011;22066;54.274;18.578;2022-11-20T05:16:34;21.40;;;8.80;;
35993;SDS011;22066;54.274;18.578;2022-11-20T05:19:01;23.80;;;10.03;;
35993;SDS011;22066;54.274;18.578;2022-11-20T05:21:29;23.87;;;9.30;;
35993;SDS011;22066;54.274;18.578;2022-11-20T05:26:21;20.40;;;8.23;;
35993;SDS011;22066;54.274;18.578;2022-11-20T05:28:47;18.50;;;9.10;;
35993;SDS011;22066;54.274;18.578;2022-11-20T05:31:15;22.20;;;7.97;;
35993;SDS011;22066;54.274;18.578;2022-11-20T05:33:41;18.27;;;6.38;;
35993;SDS011;22066;54.274;18.578;2022-11-20T05:36:08;23.13;;;8.53;;
35993;SDS011;22066;54.274;18.578;2022-11-20T05:38:34;28.03;;;9.00;;
35993;SDS011;22066;54.274;18.578;2022-11-20T05:41:09;19.30;;;9.20;;
35993;SDS011;22066;54.274;18.578;2022-11-20T05:43:35;24.60;;;8.23;;
35993;SDS011;22066;54.274;18.578;2022-11-20T05:46:02;21.30;;;8.17;;
35993;SDS011;22066;54.274;18.578;2022-11-20T05:48:28;32.00;;;10.50;;
35993;SDS011;22066;54.274;18.578;2022-11-20T05:50:56;25.07;;;9.83;;
35993;SDS011;22066;54.274;18.578;2022-11-20T05:55:55;22.30;;;7.57;;
35993;SDS011;22066;54.274;18.578;2022-11-20T05:58:22;24.37;;;8.83;;
35993;SDS011;22066;54.274;18.578;2022-11-20T06:00:48;28.17;;;9.40;;
35993;SDS011;22066;54.274;18.578;2022-11-20T06:03:14;25.80;;;10.47;;
35993;SDS011;22066;54.274;18.578;2022-11-20T06:05:40;24.33;;;10.00;;
35993;SDS011;22066;54.274;18.578;2022-11-20T06:08:06;28.47;;;9.67;;
35993;SDS011;22066;54.274;18.578;2022-11-20T06:10:32;25.07;;;10.30;;
35993;SDS011;22066;54.274;18.578;2022-11-20T06:12:58;24.73;;;9.40;;
35993;SDS011;22066;54.274;18.578;2022-11-20T06:15:24;22.20;;;7.97;;
35993;SDS011;22066;54.274;18.578;2022-11-20T06:17:54;28.17;;;10.37;;
35993;SDS011;22066;54.274;18.578;2022-11-20T06:20:20;23.20;;;8.90;;
35993;SDS011;22066;54.274;18.578;2022-11-20T06:22:46;25.50;;;8.50;;
35993;SDS011;22066;54.274;18.578;2022-11-20T06:25:12;21.63;;;8.80;;
35993;SDS011;22066;54.274;18.578;2022-11-20T06:27:39;23.73;;;9.80;;
35993;SDS011;22066;54.274;18.578;2022-11-20T06:30:05;37.83;;;11.27;;
35993;SDS011;22066;54.274;18.578;2022-11-20T06:32:32;25.40;;;9.43;;
35993;SDS011;22066;54.274;18.578;2022-11-20T06:34:58;33.17;;;11.53;;
35993;SDS011;22066;54.274;18.578;2022-11-20T06:37:24;35.17;;;12.57;;
35993;SDS011;22066;54.274;18.578;2022-11-20T06:39:50;31.93;;;11.47;;
35993;SDS011;22066;54.274;18.578;2022-11-20T06:42:16;46.00;;;14.03;;
35993;SDS011;22066;54.274;18.578;2022-11-20T06:44:42;46.20;;;15.00;;
35993;SDS011;22066;54.274;18.578;2022-11-20T06:47:08;51.13;;;16.47;;
35993;SDS011;22066;54.274;18.578;2022-11-20T06:49:34;43.07;;;17.17;;
35993;SDS011;22066;54.274;18.578;2022-11-20T06:52:02;39.45;;;11.40;;
35993;SDS011;22066;54.274;18.578;2022-11-20T06:54:28;48.30;;;18.63;;
35993;SDS011;22066;54.274;18.578;2022-11-20T06:56:54;52.60;;;18.40;;
35993;SDS011;22066;54.274;18.578;2022-11-20T06:59:20;69.50;;;22.47;;
35993;SDS011;22066;54.274;18.578;2022-11-20T07:01:46;44.70;;;17.40;;
35993;SDS011;22066;54.274;18.578;2022-11-20T07:04:12;59.23;;;21.10;;
35993;SDS011;22066;54.274;18.578;2022-11-20T07:06:38;53.77;;;21.60;;
35993;SDS011;22066;54.274;18.578;2022-11-20T07:09:04;59.87;;;22.97;;
35993;SDS011;22066;54.274;18.578;2022-11-20T07:11:30;47.00;;;19.43;;
35993;SDS011;22066;54.274;18.578;2022-11-20T07:13:56;63.63;;;21.93;;
35993;SDS011;22066;54.274;18.578;2022-11-20T07:16:22;78.70;;;27.67;;
35993;SDS011;22066;54.274;18.578;2022-11-20T07:18:48;75.27;;;28.47;;
35993;SDS011;22066;54.274;18.578;2022-11-20T07:21:14;75.80;;;27.90;;
35993;SDS011;22066;54.274;18.578;2022-11-20T07:23:40;60.80;;;24.07;;
35993;SDS011;22066;54.274;18.578;2022-11-20T07:26:07;66.20;;;26.07;;
35993;SDS011;22066;54.274;18.578;2022-11-20T07:28:34;55.33;;;23.03;;
35993;SDS011;22066;54.274;18.578;2022-11-20T07:31:00;52.67;;;22.97;;
35993;SDS011;22066;54.274;18.578;2022-11-20T07:33:26;61.63;;;22.73;;
35993;SDS011;22066;54.274;18.578;2022-11-20T07:35:52;57.80;;;19.60;;
35993;SDS011;22066;54.274;18.578;2022-11-20T07:38:18;67.03;;;20.63;;
35993;SDS011;22066;54.274;18.578;2022-11-20T07:40:44;55.70;;;20.40;;
35993;SDS011;22066;54.274;18.578;2022-11-20T07:43:10;51.90;;;19.43;;
35993;SDS011;22066;54.274;18.578;2022-11-20T07:45:36;61.13;;;19.57;;
35993;SDS011;22066;54.274;18.578;2022-11-20T07:48:02;50.27;;;18.40;;
35993;SDS011;22066;54.274;18.578;2022-11-20T07:50:28;50.70;;;18.80;;
35993;SDS011;22066;54.274;18.578;2022-11-20T07:53:01;49.67;;;17.93;;
35993;SDS011;22066;54.274;18.578;2022-11-20T07:55:27;49.17;;;16.67;;
35993;SDS011;22066;54.274;18.578;2022-11-20T07:57:54;62.73;;;21.07;;
35993;SDS011;22066;54.274;18.578;2022-11-20T08:00:21;51.50;;;18.50;;
35993;SDS011;22066;54.274;18.578;2022-11-20T08:02:47;56.00;;;17.37;;
35993;SDS011;22066;54.274;18.578;2022-11-20T08:05:13;51.00;;;17.83;;
35993;SDS011;22066;54.274;18.578;2022-11-20T08:07:39;145.93;;;47.73;;
35993;SDS011;22066;54.274;18.578;2022-11-20T08:10:06;115.37;;;41.20;;
35993;SDS011;22066;54.274;18.578;2022-11-20T08:12:32;135.73;;;43.33;;
35993;SDS011;22066;54.274;18.578;2022-11-20T08:15:17;52.73;;;22.77;;
35993;SDS011;22066;54.274;18.578;2022-11-20T08:17:43;56.03;;;18.20;;
35993;SDS011;22066;54.274;18.578;2022-11-20T08:20:09;48.27;;;15.80;;
35993;SDS011;22066;54.274;18.578;2022-11-20T08:22:35;39.90;;;15.13;;
35993;SDS011;22066;54.274;18.578;2022-11-20T08:25:01;40.47;;;14.70;;
35993;SDS011;22066;54.274;18.578;2022-11-20T08:27:27;45.23;;;17.00;;
35993;SDS011;22066;54.274;18.578;2022-11-20T08:29:53;47.67;;;16.70;;
35993;SDS011;22066;54.274;18.578;2022-11-20T08:32:19;48.83;;;18.13;;
35993;SDS011;22066;54.274;18.578;2022-11-20T08:34:45;42.00;;;16.33;;
35993;SDS011;22066;54.274;18.578;2022-11-20T08:37:11;37.53;;;14.13;;
35993;SDS011;22066;54.274;18.578;2022-11-20T08:39:37;44.10;;;16.60;;
35993;SDS011;22066;54.274;18.578;2022-11-20T08:42:06;43.33;;;15.67;;
35993;SDS011;22066;54.274;18.578;2022-11-20T08:44:33;45.60;;;15.37;;
35993;SDS011;22066;54.274;18.578;2022-11-20T08:46:59;44.90;;;15.43;;
35993;SDS011;22066;54.274;18.578;2022-11-20T08:49:25;41.07;;;16.13;;
35993;SDS011;22066;54.274;18.578;2022-11-20T08:51:52;49.03;;;17.57;;
35993;SDS011;22066;54.274;18.578;2022-11-20T08:54:20;43.97;;;15.65;;
35993;SDS011;22066;54.274;18.578;2022-11-20T08:56:47;40.37;;;16.03;;
35993;SDS011;22066;54.274;18.578;2022-11-20T08:59:13;38.63;;;14.00;;
35993;SDS011;22066;54.274;18.578;2022-11-20T09:01:39;48.83;;;17.40;;
35993;SDS011;22066;54.274;18.578;2022-11-20T09:04:05;50.43;;;16.03;;
35993;SDS011;22066;54.274;18.578;2022-11-20T09:06:37;53.20;;;17.63;;
35993;SDS011;22066;54.274;18.578;2022-11-20T09:09:03;53.83;;;16.87;;
35993;SDS011;22066;54.274;18.578;2022-11-20T09:11:30;49.70;;;17.77;;
35993;SDS011;22066;54.274;18.578;2022-11-20T09:13:56;46.70;;;17.23;;
35993;SDS011;22066;54.274;18.578;2022-11-20T09:16:22;56.20;;;20.23;;
35993;SDS011;22066;54.274;18.578;2022-11-20T09:18:49;45.40;;;17.00;;
35993;SDS011;22066;54.274;18.578;2022-11-20T09:21:16;58.20;;;18.37;;
35993;SDS011;22066;54.274;18.578;2022-11-20T09:23:42;49.13;;;17.27;;
35993;SDS011;22066;54.274;18.578;2022-11-20T09:26:11;51.00;;;17.37;;
35993;SDS011;22066;54.274;18.578;2022-11-20T09:28:38;52.43;;;16.87;;
35993;SDS011;22066;54.274;18.578;2022-11-20T09:31:05;50.43;;;18.20;;
35993;SDS011;22066;54.274;18.578;2022-11-20T09:33:31;47.83;;;16.83;;
35993;SDS011;22066;54.274;18.578;2022-11-20T09:35:57;54.37;;;17.70;;
35993;SDS011;22066;54.274;18.578;2022-11-20T09:38:23;51.07;;;16.27;;
35993;SDS011;22066;54.274;18.578;2022-11-20T09:40:52;51.50;;;17.20;;
35993;SDS011;22066;54.274;18.578;2022-11-20T09:50:49;45.00;;;16.53;;
35993;SDS011;22066;54.274;18.578;2022-11-20T09:56:19;59.37;;;16.77;;
35993;SDS011;22066;54.274;18.578;2022-11-20T09:58:49;56.43;;;19.70;;
35993;SDS011;22066;54.274;18.578;2022-11-20T10:01:17;52.37;;;19.23;;
35993;SDS011;22066;54.274;18.578;2022-11-20T10:03:57;35.95;;;13.57;;
35993;SDS011;22066;54.274;18.578;2022-11-20T10:06:29;52.80;;;17.07;;
35993;SDS011;22066;54.274;18.578;2022-11-20T10:09:18;53.83;;;20.23;;
35993;SDS011;22066;54.274;18.578;2022-11-20T10:14:33;59.73;;;21.33;;
35993;SDS011;22066;54.274;18.578;2022-11-20T10:24:41;56.40;;;20.67;;
35993;SDS011;22066;54.274;18.578;2022-11-20T10:27:30;58.73;;;22.13;;
35993;SDS011;22066;54.274;18.578;2022-11-20T10:30:03;44.70;;;16.40;;
35993;SDS011;22066;54.274;18.578;2022-11-20T10:32:37;58.77;;;21.03;;
35993;SDS011;22066;54.274;18.578;2022-11-20T10:35:05;77.87;;;23.13;;
35993;SDS011;22066;54.274;18.578;2022-11-20T10:37:34;72.40;;;24.57;;
35993;SDS011;22066;54.274;18.578;2022-11-20T10:40:18;60.80;;;24.15;;
35993;SDS011;22066;54.274;18.578;2022-11-20T10:42:46;66.70;;;23.90;;
35993;SDS011;22066;54.274;18.578;2022-11-20T10:45:58;58.73;;;21.77;;
35993;SDS011;22066;54.274;18.578;2022-11-20T10:48:21;52.97;;;20.10;;
35993;SDS011;22066;54.274;18.578;2022-11-20T10:56:08;55.00;;;22.07;;
35993;SDS011;22066;54.274;18.578;2022-11-20T11:01:19;55.17;;;22.20;;
35993;SDS011;22066;54.274;18.578;2022-11-20T11:03:49;59.60;;;22.80;;
35993;SDS011;22066;54.274;18.578;2022-11-20T11:09:13;59.00;;;21.33;;
35993;SDS011;22066;54.274;18.578;2022-11-20T11:11:41;51.90;;;22.17;;
35993;SDS011;22066;54.274;18.578;2022-11-20T11:14:08;65.10;;;22.83;;
35993;SDS011;22066;54.274;18.578;2022-11-20T11:16:34;53.17;;;19.93;;
35993;SDS011;22066;54.274;18.578;2022-11-20T11:19:07;58.83;;;24.03;;
35993;SDS011;22066;54.274;18.578;2022-11-20T11:21:37;55.93;;;21.80;;
35993;SDS011;22066;54.274;18.578;2022-11-20T11:24:14;65.87;;;23.43;;
35993;SDS011;22066;54.274;18.578;2022-11-20T11:26:50;79.23;;;27.93;;
35993;SDS011;22066;54.274;18.578;2022-11-20T11:29:17;76.93;;;27.50;;
35993;SDS011;22066;54.274;18.578;2022-11-20T11:31:43;46.17;;;14.87;;
35993;SDS011;22066;54.274;18.578;2022-11-20T11:36:35;54.53;;;20.57;;
35993;SDS011;22066;54.274;18.578;2022-11-20T11:39:02;58.43;;;21.40;;
35993;SDS011;22066;54.274;18.578;2022-11-20T11:41:32;51.60;;;19.73;;
35993;SDS011;22066;54.274;18.578;2022-11-20T11:44:12;53.30;;;19.83;;
35993;SDS011;22066;54.274;18.578;2022-11-20T11:46:59;55.20;;;20.02;;
35993;SDS011;22066;54.274;18.578;2022-11-20T11:49:25;51.60;;;19.07;;
35993;SDS011;22066;54.274;18.578;2022-11-20T11:52:12;50.87;;;19.07;;
35993;SDS011;22066;54.274;18.578;2022-11-20T11:54:55;51.53;;;22.05;;
35993;SDS011;22066;54.274;18.578;2022-11-20T11:59:59;48.87;;;20.00;;
35993;SDS011;22066;54.274;18.578;2022-11-20T12:02:29;53.97;;;18.00;;
35993;SDS011;22066;54.274;18.578;2022-11-20T12:04:59;50.83;;;19.93;;
35993;SDS011;22066;54.274;18.578;2022-11-20T12:07:41;62.60;;;23.80;;
35993;SDS011;22066;54.274;18.578;2022-11-20T12:10:19;58.73;;;23.90;;
35993;SDS011;22066;54.274;18.578;2022-11-20T12:12:58;62.95;;;23.65;;
35993;SDS011;22066;54.274;18.578;2022-11-20T12:15:29;50.97;;;19.13;;
35993;SDS011;22066;54.274;18.578;2022-11-20T12:17:55;54.37;;;19.93;;
35993;SDS011;22066;54.274;18.578;2022-11-20T12:20:22;58.63;;;20.73;;
35993;SDS011;22066;54.274;18.578;2022-11-20T12:25:30;49.17;;;16.40;;
35993;SDS011;22066;54.274;18.578;2022-11-20T12:30:36;47.88;;;17.67;;
35993;SDS011;22066;54.274;18.578;2022-11-20T12:33:11;52.90;;;20.20;;
35993;SDS011;22066;54.274;18.578;2022-11-20T12:39:02;53.27;;;19.73;;
35993;SDS011;22066;54.274;18.578;2022-11-20T12:49:56;52.50;;;21.93;;
35993;SDS011;22066;54.274;18.578;2022-11-20T12:52:29;44.43;;;18.17;;
35993;SDS011;22066;54.274;18.578;2022-11-20T13:05:19;41.77;;;19.00;;
35993;SDS011;22066;54.274;18.578;2022-11-20T13:07:47;46.77;;;18.00;;
35993;SDS011;22066;54.274;18.578;2022-11-20T13:10:33;43.30;;;16.70;;
35993;SDS011;22066;54.274;18.578;2022-11-20T13:13:03;43.90;;;15.80;;
35993;SDS011;22066;54.274;18.578;2022-11-20T13:18:15;57.27;;;20.30;;
35993;SDS011;22066;54.274;18.578;2022-11-20T13:20:42;48.47;;;18.20;;
35993;SDS011;22066;54.274;18.578;2022-11-20T13:23:09;34.30;;;15.40;;
35993;SDS011;22066;54.274;18.578;2022-11-20T13:25:38;40.77;;;16.60;;
35993;SDS011;22066;54.274;18.578;2022-11-20T13:30:31;44.27;;;18.37;;
35993;SDS011;22066;54.274;18.578;2022-11-20T13:35:33;49.67;;;17.33;;
35993;SDS011;22066;54.274;18.578;2022-11-20T13:38:04;48.73;;;17.47;;
35993;SDS011;22066;54.274;18.578;2022-11-20T13:40:30;51.77;;;18.03;;
35993;SDS011;22066;54.274;18.578;2022-11-20T13:43:02;48.67;;;18.00;;
35993;SDS011;22066;54.274;18.578;2022-11-20T13:45:30;45.97;;;18.00;;
35993;SDS011;22066;54.274;18.578;2022-11-20T13:47:57;52.60;;;20.90;;
35993;SDS011;22066;54.274;18.578;2022-11-20T13:50:38;54.47;;;20.75;;
35993;SDS011;22066;54.274;18.578;2022-11-20T13:55:42;49.90;;;20.23;;
35993;SDS011;22066;54.274;18.578;2022-11-20T14:01:00;49.00;;;18.97;;
35993;SDS011;22066;54.274;18.578;2022-11-20T14:03:31;46.37;;;19.23;;
35993;SDS011;22066;54.274;18.578;2022-11-20T14:06:01;31.65;;;13.07;;
35993;SDS011;22066;54.274;18.578;2022-11-20T14:13:38;50.83;;;19.37;;
35993;SDS011;22066;54.274;18.578;2022-11-20T14:16:04;52.87;;;19.13;;
35993;SDS011;22066;54.274;18.578;2022-11-20T14:18:30;90.43;;;39.93;;
35993;SDS011;22066;54.274;18.578;2022-11-20T14:20:59;58.00;;;20.57;;
35993;SDS011;22066;54.274;18.578;2022-11-20T14:23:27;69.33;;;27.93;;
35993;SDS011;22066;54.274;18.578;2022-11-20T14:25:53;56.23;;;19.97;;
35993;SDS011;22066;54.274;18.578;2022-11-20T14:28:26;53.23;;;21.47;;
35993;SDS011;22066;54.274;18.578;2022-11-20T14:30:53;59.30;;;21.53;;
35993;SDS011;22066;54.274;18.578;2022-11-20T14:33:20;55.10;;;22.37;;
35993;SDS011;22066;54.274;18.578;2022-11-20T14:35:50;51.97;;;20.07;;
35993;SDS011;22066;54.274;18.578;2022-11-20T14:38:18;53.10;;;20.08;;
35993;SDS011;22066;54.274;18.578;2022-11-20T14:43:19;46.93;;;17.60;;
35993;SDS011;22066;54.274;18.578;2022-11-20T14:45:52;46.90;;;21.07;;
35993;SDS011;22066;54.274;18.578;2022-11-20T14:48:23;46.30;;;19.37;;
35993;SDS011;22066;54.274;18.578;2022-11-20T14:50:49;54.77;;;20.67;;
35993;SDS011;22066;54.274;18.578;2022-11-20T14:53:22;54.17;;;19.60;;
35993;SDS011;22066;54.274;18.578;2022-11-20T14:55:54;57.33;;;21.23;;
35993;SDS011;22066;54.274;18.578;2022-11-20T14:58:30;53.43;;;18.83;;
35993;SDS011;22066;54.274;18.578;2022-11-20T15:01:14;47.83;;;18.63;;
35993;SDS011;22066;54.274;18.578;2022-11-20T15:03:45;42.67;;;16.87;;
35993;SDS011;22066;54.274;18.578;2022-11-20T15:06:14;42.63;;;17.57;;
35993;SDS011;22066;54.274;18.578;2022-11-20T15:08:51;48.90;;;19.60;;
35993;SDS011;22066;54.274;18.578;2022-11-20T15:11:18;60.47;;;25.07;;
35993;SDS011;22066;54.274;18.578;2022-11-20T15:13:45;49.00;;;21.40;;
35993;SDS011;22066;54.274;18.578;2022-11-20T15:16:20;53.10;;;20.07;;
35993;SDS011;22066;54.274;18.578;2022-11-20T15:18:47;50.63;;;19.80;;
35993;SDS011;22066;54.274;18.578;2022-11-20T15:21:14;53.87;;;21.13;;
35993;SDS011;22066;54.274;18.578;2022-11-20T15:23:40;58.27;;;21.30;;
35993;SDS011;22066;54.274;18.578;2022-11-20T15:26:11;62.73;;;23.53;;
35993;SDS011;22066;54.274;18.578;2022-11-20T15:28:41;47.07;;;20.13;;
35993;SDS011;22066;54.274;18.578;2022-11-20T15:31:14;48.67;;;18.50;;
35993;SDS011;22066;54.274;18.578;2022-11-20T15:33:40;48.50;;;17.27;;
35993;SDS011;22066;54.274;18.578;2022-11-20T15:36:07;48.93;;;19.43;;
35993;SDS011;22066;54.274;18.578;2022-11-20T15:38:33;58.97;;;20.80;;
35993;SDS011;22066;54.274;18.578;2022-11-20T15:40:59;55.33;;;21.27;;
35993;SDS011;22066;54.274;18.578;2022-11-20T15:43:25;77.20;;;26.37;;
35993;SDS011;22066;54.274;18.578;2022-11-20T15:45:53;68.83;;;27.43;;
35993;SDS011;22066;54.274;18.578;2022-11-20T15:48:20;67.97;;;24.35;;
35993;SDS011;22066;54.274;18.578;2022-11-20T15:51:05;55.47;;;21.80;;
35993;SDS011;22066;54.274;18.578;2022-11-20T15:53:33;52.60;;;20.80;;